sensor_id;sensor_type;location;lat;lon;timestamp;P1;durP1;ratioP1;P2;durP2;ratioP2
55913;SDS011;58179;48.776;9.124;2023-01-01T00:00:57;189.45;;;109.95;;
55913;SDS011;58179;48.776;9.124;2023-01-01T00:03:23;175.02;;;105.65;;
55913;SDS011;58179;48.776;9.124;2023-01-01T00:05:49;172.32;;;102.70;;
55913;SDS011;58179;48.776;9.124;2023-01-01T00:08:15;923.70;;;535.70;;
55913;SDS011;58179;48.776;9.124;2023-01-01T00:10:40;326.63;;;178.95;;
55913;SDS011;58179;48.776;9.124;2023-01-01T00:13:06;648.13;;;430.80;;
55913;SDS011;58179;48.776;9.124;2023-01-01T00:15:34;167.10;;;101.47;;
55913;SDS011;58179;48.776;9.124;2023-01-01T00:17:59;203.40;;;127.00;;
55913;SDS011;58179;48.776;9.124;2023-01-01T00:20:25;178.65;;;101.68;;
55913;SDS011;58179;48.776;9.124;2023-01-01T00:22:52;833.40;;;560.80;;
55913;SDS011;58179;48.776;9.124;2023-01-01T00:25:18;1779.07;;;909.90;;
55913;SDS011;58179;48.776;9.124;2023-01-01T00:27:44;745.22;;;483.88;;
55913;SDS011;58179;48.776;9.124;2023-01-01T00:30:10;186.25;;;118.07;;
55913;SDS011;58179;48.776;9.124;2023-01-01T00:32:39;100.45;;;59.67;;
55913;SDS011;58179;48.776;9.124;2023-01-01T00:35:05;86.70;;;52.80;;
55913;SDS011;58179;48.776;9.124;2023-01-01T00:37:32;89.05;;;52.88;;
55913;SDS011;58179;48.776;9.124;2023-01-01T00:39:58;87.95;;;52.67;;
55913;SDS011;58179;48.776;9.124;2023-01-01T00:42:24;80.95;;;48.20;;
55913;SDS011;58179;48.776;9.124;2023-01-01T00:44:50;89.53;;;52.93;;
55913;SDS011;58179;48.776;9.124;2023-01-01T00:47:15;82.47;;;47.95;;
55913;SDS011;58179;48.776;9.124;2023-01-01T00:49:43;90.95;;;50.45;;
55913;SDS011;58179;48.776;9.124;2023-01-01T00:52:09;75.05;;;44.13;;
55913;SDS011;58179;48.776;9.124;2023-01-01T00:54:35;70.38;;;42.55;;
55913;SDS011;58179;48.776;9.124;2023-01-01T00:57:01;89.53;;;50.97;;
55913;SDS011;58179;48.776;9.124;2023-01-01T00:59:26;79.80;;;45.05;;
55913;SDS011;58179;48.776;9.124;2023-01-01T01:01:52;93.25;;;48.42;;
55913;SDS011;58179;48.776;9.124;2023-01-01T01:04:18;240.27;;;98.80;;
55913;SDS011;58179;48.776;9.124;2023-01-01T01:06:46;131.63;;;60.87;;
55913;SDS011;58179;48.776;9.124;2023-01-01T01:09:12;83.15;;;41.97;;
55913;SDS011;58179;48.776;9.124;2023-01-01T01:11:38;90.28;;;45.88;;
55913;SDS011;58179;48.776;9.124;2023-01-01T01:14:04;89.18;;;47.03;;
55913;SDS011;58179;48.776;9.124;2023-01-01T01:16:30;100.28;;;50.90;;
55913;SDS011;58179;48.776;9.124;2023-01-01T01:18:59;83.85;;;46.28;;
55913;SDS011;58179;48.776;9.124;2023-01-01T01:21:29;63.45;;;36.22;;
55913;SDS011;58179;48.776;9.124;2023-01-01T01:23:57;65.50;;;34.47;;
55913;SDS011;58179;48.776;9.124;2023-01-01T01:26:26;68.57;;;34.85;;
55913;SDS011;58179;48.776;9.124;2023-01-01T01:28:54;69.25;;;35.08;;
55913;SDS011;58179;48.776;9.124;2023-01-01T01:31:21;67.43;;;33.63;;
55913;SDS011;58179;48.776;9.124;2023-01-01T01:33:50;60.45;;;32.47;;
55913;SDS011;58179;48.776;9.124;2023-01-01T01:36:16;661.45;;;395.55;;
55913;SDS011;58179;48.776;9.124;2023-01-01T01:38:43;115.18;;;58.80;;
55913;SDS011;58179;48.776;9.124;2023-01-01T01:41:11;64.87;;;33.47;;
55913;SDS011;58179;48.776;9.124;2023-01-01T01:43:49;51.77;;;26.07;;
55913;SDS011;58179;48.776;9.124;2023-01-01T01:46:20;55.33;;;25.63;;
55913;SDS011;58179;48.776;9.124;2023-01-01T01:48:52;56.63;;;27.02;;
55913;SDS011;58179;48.776;9.124;2023-01-01T01:51:23;55.90;;;26.98;;
55913;SDS011;58179;48.776;9.124;2023-01-01T01:53:56;46.28;;;25.35;;
55913;SDS011;58179;48.776;9.124;2023-01-01T01:56:29;60.20;;;26.95;;
55913;SDS011;58179;48.776;9.124;2023-01-01T01:59:03;53.08;;;23.60;;
55913;SDS011;58179;48.776;9.124;2023-01-01T02:01:29;43.05;;;22.65;;
55913;SDS011;58179;48.776;9.124;2023-01-01T02:03:56;44.25;;;22.65;;
55913;SDS011;58179;48.776;9.124;2023-01-01T02:06:24;50.55;;;24.23;;
55913;SDS011;58179;48.776;9.124;2023-01-01T02:08:50;45.40;;;23.33;;
55913;SDS011;58179;48.776;9.124;2023-01-01T02:11:17;50.45;;;24.95;;
55913;SDS011;58179;48.776;9.124;2023-01-01T02:13:44;48.95;;;24.42;;
55913;SDS011;58179;48.776;9.124;2023-01-01T02:16:11;69.40;;;33.33;;
55913;SDS011;58179;48.776;9.124;2023-01-01T02:18:45;62.10;;;29.25;;
55913;SDS011;58179;48.776;9.124;2023-01-01T02:21:18;57.17;;;27.85;;
55913;SDS011;58179;48.776;9.124;2023-01-01T02:23:52;62.13;;;29.90;;
55913;SDS011;58179;48.776;9.124;2023-01-01T02:26:50;61.72;;;31.17;;
55913;SDS011;58179;48.776;9.124;2023-01-01T02:29:26;62.13;;;30.27;;
55913;SDS011;58179;48.776;9.124;2023-01-01T02:32:01;51.92;;;28.27;;
55913;SDS011;58179;48.776;9.124;2023-01-01T02:34:32;42.60;;;23.15;;
55913;SDS011;58179;48.776;9.124;2023-01-01T02:37:04;46.90;;;24.50;;
55913;SDS011;58179;48.776;9.124;2023-01-01T02:39:34;34.92;;;19.60;;
55913;SDS011;58179;48.776;9.124;2023-01-01T02:42:06;33.20;;;18.15;;
55913;SDS011;58179;48.776;9.124;2023-01-01T02:44:35;27.55;;;14.73;;
55913;SDS011;58179;48.776;9.124;2023-01-01T02:47:06;28.45;;;15.07;;
55913;SDS011;58179;48.776;9.124;2023-01-01T02:49:36;22.80;;;12.77;;
55913;SDS011;58179;48.776;9.124;2023-01-01T02:52:10;24.33;;;12.10;;
55913;SDS011;58179;48.776;9.124;2023-01-01T02:54:48;23.30;;;12.05;;
55913;SDS011;58179;48.776;9.124;2023-01-01T02:57:25;21.05;;;11.10;;
55913;SDS011;58179;48.776;9.124;2023-01-01T03:00:03;18.80;;;10.32;;
55913;SDS011;58179;48.776;9.124;2023-01-01T03:02:51;17.45;;;9.48;;
55913;SDS011;58179;48.776;9.124;2023-01-01T03:05:33;17.77;;;10.32;;
55913;SDS011;58179;48.776;9.124;2023-01-01T03:08:29;17.42;;;9.93;;
55913;SDS011;58179;48.776;9.124;2023-01-01T03:11:06;15.60;;;8.73;;
55913;SDS011;58179;48.776;9.124;2023-01-01T03:13:38;14.98;;;7.53;;
55913;SDS011;58179;48.776;9.124;2023-01-01T03:16:14;10.88;;;7.05;;
55913;SDS011;58179;48.776;9.124;2023-01-01T03:18:47;9.57;;;6.22;;
55913;SDS011;58179;48.776;9.124;2023-01-01T03:21:34;12.10;;;6.53;;
55913;SDS011;58179;48.776;9.124;2023-01-01T03:24:05;14.98;;;7.25;;
55913;SDS011;58179;48.776;9.124;2023-01-01T03:26:33;9.95;;;5.90;;
55913;SDS011;58179;48.776;9.124;2023-01-01T03:29:00;13.10;;;6.97;;
55913;SDS011;58179;48.776;9.124;2023-01-01T03:31:30;11.80;;;6.78;;
55913;SDS011;58179;48.776;9.124;2023-01-01T03:33:58;12.75;;;6.72;;
55913;SDS011;58179;48.776;9.124;2023-01-01T03:36:30;12.45;;;6.78;;
55913;SDS011;58179;48.776;9.124;2023-01-01T03:39:00;12.88;;;6.70;;
55913;SDS011;58179;48.776;9.124;2023-01-01T03:41:34;14.00;;;6.85;;
55913;SDS011;58179;48.776;9.124;2023-01-01T03:44:06;16.13;;;7.45;;
55913;SDS011;58179;48.776;9.124;2023-01-01T03:46:38;14.13;;;7.07;;
55913;SDS011;58179;48.776;9.124;2023-01-01T03:51:45;13.02;;;6.70;;
55913;SDS011;58179;48.776;9.124;2023-01-01T03:54:26;13.30;;;7.35;;
55913;SDS011;58179;48.776;9.124;2023-01-01T03:57:04;12.55;;;6.63;;
55913;SDS011;58179;48.776;9.124;2023-01-01T03:59:38;13.52;;;6.88;;
55913;SDS011;58179;48.776;9.124;2023-01-01T04:02:14;15.20;;;6.93;;
55913;SDS011;58179;48.776;9.124;2023-01-01T04:04:44;14.10;;;6.90;;
55913;SDS011;58179;48.776;9.124;2023-01-01T04:07:11;14.55;;;6.82;;
55913;SDS011;58179;48.776;9.124;2023-01-01T04:09:37;12.65;;;6.72;;
55913;SDS011;58179;48.776;9.124;2023-01-01T04:12:08;13.38;;;6.75;;
55913;SDS011;58179;48.776;9.124;2023-01-01T04:14:37;15.85;;;7.05;;
55913;SDS011;58179;48.776;9.124;2023-01-01T04:17:05;13.13;;;7.35;;
55913;SDS011;58179;48.776;9.124;2023-01-01T04:19:35;16.85;;;7.28;;
55913;SDS011;58179;48.776;9.124;2023-01-01T04:22:01;17.48;;;8.10;;
55913;SDS011;58179;48.776;9.124;2023-01-01T04:24:28;14.93;;;7.20;;
55913;SDS011;58179;48.776;9.124;2023-01-01T04:26:55;14.00;;;7.10;;
55913;SDS011;58179;48.776;9.124;2023-01-01T04:29:21;16.50;;;8.18;;
55913;SDS011;58179;48.776;9.124;2023-01-01T04:31:47;13.07;;;7.70;;
55913;SDS011;58179;48.776;9.124;2023-01-01T04:34:14;20.02;;;7.70;;
55913;SDS011;58179;48.776;9.124;2023-01-01T04:36:41;16.88;;;7.60;;
55913;SDS011;58179;48.776;9.124;2023-01-01T04:39:07;17.50;;;7.97;;
55913;SDS011;58179;48.776;9.124;2023-01-01T04:41:33;22.65;;;7.90;;
55913;SDS011;58179;48.776;9.124;2023-01-01T04:44:00;15.60;;;7.80;;
55913;SDS011;58179;48.776;9.124;2023-01-01T04:46:26;20.45;;;8.88;;
55913;SDS011;58179;48.776;9.124;2023-01-01T04:48:52;16.23;;;8.48;;
55913;SDS011;58179;48.776;9.124;2023-01-01T04:51:18;18.13;;;9.18;;
55913;SDS011;58179;48.776;9.124;2023-01-01T04:53:46;21.10;;;9.40;;
55913;SDS011;58179;48.776;9.124;2023-01-01T04:56:13;16.25;;;9.05;;
55913;SDS011;58179;48.776;9.124;2023-01-01T04:58:42;19.02;;;9.43;;
55913;SDS011;58179;48.776;9.124;2023-01-01T05:01:16;21.42;;;10.35;;
55913;SDS011;58179;48.776;9.124;2023-01-01T05:03:44;23.25;;;10.25;;
55913;SDS011;58179;48.776;9.124;2023-01-01T05:06:11;24.33;;;10.45;;
55913;SDS011;58179;48.776;9.124;2023-01-01T05:08:39;20.38;;;10.40;;
55913;SDS011;58179;48.776;9.124;2023-01-01T05:11:08;24.10;;;10.48;;
55913;SDS011;58179;48.776;9.124;2023-01-01T05:13:37;20.42;;;10.13;;
55913;SDS011;58179;48.776;9.124;2023-01-01T05:16:06;24.58;;;10.23;;
55913;SDS011;58179;48.776;9.124;2023-01-01T05:18:34;22.15;;;10.13;;
55913;SDS011;58179;48.776;9.124;2023-01-01T05:21:01;19.80;;;9.88;;
55913;SDS011;58179;48.776;9.124;2023-01-01T05:23:28;16.50;;;8.90;;
55913;SDS011;58179;48.776;9.124;2023-01-01T05:25:54;21.40;;;9.40;;
55913;SDS011;58179;48.776;9.124;2023-01-01T05:28:22;16.67;;;8.85;;
55913;SDS011;58179;48.776;9.124;2023-01-01T05:30:49;19.02;;;8.75;;
55913;SDS011;58179;48.776;9.124;2023-01-01T05:33:15;18.85;;;8.43;;
55913;SDS011;58179;48.776;9.124;2023-01-01T05:35:41;16.60;;;8.50;;
55913;SDS011;58179;48.776;9.124;2023-01-01T05:38:06;14.90;;;8.10;;
55913;SDS011;58179;48.776;9.124;2023-01-01T05:40:32;15.85;;;8.27;;
55913;SDS011;58179;48.776;9.124;2023-01-01T05:42:58;16.40;;;7.20;;
55913;SDS011;58179;48.776;9.124;2023-01-01T05:45:26;10.95;;;6.80;;
55913;SDS011;58179;48.776;9.124;2023-01-01T05:47:51;15.05;;;7.03;;
55913;SDS011;58179;48.776;9.124;2023-01-01T05:50:17;15.33;;;6.93;;
55913;SDS011;58179;48.776;9.124;2023-01-01T05:52:43;18.35;;;7.07;;
55913;SDS011;58179;48.776;9.124;2023-01-01T05:55:09;13.55;;;6.88;;
55913;SDS011;58179;48.776;9.124;2023-01-01T05:57:35;11.63;;;6.25;;
55913;SDS011;58179;48.776;9.124;2023-01-01T06:00:01;11.47;;;6.20;;
55913;SDS011;58179;48.776;9.124;2023-01-01T06:02:30;15.60;;;6.50;;
55913;SDS011;58179;48.776;9.124;2023-01-01T06:04:56;13.30;;;6.57;;
55913;SDS011;58179;48.776;9.124;2023-01-01T06:07:22;14.70;;;7.18;;
55913;SDS011;58179;48.776;9.124;2023-01-01T06:09:47;13.57;;;6.57;;
55913;SDS011;58179;48.776;9.124;2023-01-01T06:12:13;11.85;;;6.65;;
55913;SDS011;58179;48.776;9.124;2023-01-01T06:14:39;15.02;;;6.95;;
55913;SDS011;58179;48.776;9.124;2023-01-01T06:17:05;16.95;;;7.65;;
55913;SDS011;58179;48.776;9.124;2023-01-01T06:19:32;13.77;;;6.90;;
55913;SDS011;58179;48.776;9.124;2023-01-01T06:21:58;11.93;;;6.88;;
55913;SDS011;58179;48.776;9.124;2023-01-01T06:24:24;12.63;;;6.85;;
55913;SDS011;58179;48.776;9.124;2023-01-01T06:26:50;15.27;;;7.60;;
55913;SDS011;58179;48.776;9.124;2023-01-01T06:29:16;10.98;;;7.15;;
55913;SDS011;58179;48.776;9.124;2023-01-01T06:31:41;13.75;;;6.95;;
55913;SDS011;58179;48.776;9.124;2023-01-01T06:34:07;16.10;;;7.70;;
55913;SDS011;58179;48.776;9.124;2023-01-01T06:36:35;18.23;;;7.90;;
55913;SDS011;58179;48.776;9.124;2023-01-01T06:39:01;14.82;;;7.80;;
55913;SDS011;58179;48.776;9.124;2023-01-01T06:41:27;15.63;;;7.70;;
55913;SDS011;58179;48.776;9.124;2023-01-01T06:43:55;15.13;;;7.85;;
55913;SDS011;58179;48.776;9.124;2023-01-01T06:46:23;22.10;;;9.05;;
55913;SDS011;58179;48.776;9.124;2023-01-01T06:48:51;20.02;;;8.70;;
55913;SDS011;58179;48.776;9.124;2023-01-01T06:51:20;20.58;;;8.82;;
55913;SDS011;58179;48.776;9.124;2023-01-01T06:53:48;16.42;;;8.95;;
55913;SDS011;58179;48.776;9.124;2023-01-01T06:56:15;18.70;;;8.93;;
55913;SDS011;58179;48.776;9.124;2023-01-01T06:58:42;15.85;;;8.18;;
55913;SDS011;58179;48.776;9.124;2023-01-01T07:01:09;20.48;;;9.30;;
55913;SDS011;58179;48.776;9.124;2023-01-01T07:03:37;19.85;;;9.35;;
55913;SDS011;58179;48.776;9.124;2023-01-01T07:06:04;18.55;;;8.75;;
55913;SDS011;58179;48.776;9.124;2023-01-01T07:08:31;20.77;;;9.43;;
55913;SDS011;58179;48.776;9.124;2023-01-01T07:10:58;19.53;;;9.47;;
55913;SDS011;58179;48.776;9.124;2023-01-01T07:13:27;18.13;;;8.90;;
55913;SDS011;58179;48.776;9.124;2023-01-01T07:15:54;17.33;;;9.32;;
55913;SDS011;58179;48.776;9.124;2023-01-01T07:18:21;22.65;;;9.57;;
55913;SDS011;58179;48.776;9.124;2023-01-01T07:20:48;17.75;;;8.52;;
55913;SDS011;58179;48.776;9.124;2023-01-01T07:23:16;15.68;;;8.82;;
55913;SDS011;58179;48.776;9.124;2023-01-01T07:25:42;17.83;;;8.82;;
55913;SDS011;58179;48.776;9.124;2023-01-01T07:28:10;20.08;;;9.25;;
55913;SDS011;58179;48.776;9.124;2023-01-01T07:30:37;18.17;;;9.13;;
55913;SDS011;58179;48.776;9.124;2023-01-01T07:33:03;22.35;;;8.88;;
55913;SDS011;58179;48.776;9.124;2023-01-01T07:35:28;18.33;;;8.80;;
55913;SDS011;58179;48.776;9.124;2023-01-01T07:37:54;16.13;;;8.20;;
55913;SDS011;58179;48.776;9.124;2023-01-01T07:40:20;17.63;;;8.73;;
55913;SDS011;58179;48.776;9.124;2023-01-01T07:42:46;17.45;;;8.60;;
55913;SDS011;58179;48.776;9.124;2023-01-01T07:45:13;18.08;;;8.48;;
55913;SDS011;58179;48.776;9.124;2023-01-01T07:47:39;16.17;;;8.30;;
55913;SDS011;58179;48.776;9.124;2023-01-01T07:50:05;18.00;;;8.95;;
55913;SDS011;58179;48.776;9.124;2023-01-01T07:52:38;17.30;;;8.82;;
55913;SDS011;58179;48.776;9.124;2023-01-01T07:55:04;17.30;;;8.85;;
55913;SDS011;58179;48.776;9.124;2023-01-01T07:57:32;14.43;;;7.93;;
55913;SDS011;58179;48.776;9.124;2023-01-01T07:59:58;18.88;;;8.27;;
55913;SDS011;58179;48.776;9.124;2023-01-01T08:02:25;17.43;;;8.20;;
55913;SDS011;58179;48.776;9.124;2023-01-01T08:04:51;16.55;;;8.20;;
55913;SDS011;58179;48.776;9.124;2023-01-01T08:07:16;15.18;;;7.60;;
55913;SDS011;58179;48.776;9.124;2023-01-01T08:09:42;17.93;;;7.70;;
55913;SDS011;58179;48.776;9.124;2023-01-01T08:12:08;14.20;;;7.55;;
55913;SDS011;58179;48.776;9.124;2023-01-01T08:14:34;16.65;;;8.15;;
55913;SDS011;58179;48.776;9.124;2023-01-01T08:17:00;16.05;;;7.25;;
55913;SDS011;58179;48.776;9.124;2023-01-01T08:19:27;12.30;;;7.10;;
55913;SDS011;58179;48.776;9.124;2023-01-01T08:21:53;12.80;;;7.28;;
55913;SDS011;58179;48.776;9.124;2023-01-01T08:24:19;13.95;;;6.80;;
55913;SDS011;58179;48.776;9.124;2023-01-01T08:26:47;13.97;;;6.93;;
55913;SDS011;58179;48.776;9.124;2023-01-01T08:29:14;14.30;;;7.45;;
55913;SDS011;58179;48.776;9.124;2023-01-01T08:31:40;12.55;;;6.68;;
55913;SDS011;58179;48.776;9.124;2023-01-01T08:34:06;13.32;;;7.20;;
55913;SDS011;58179;48.776;9.124;2023-01-01T08:36:33;14.23;;;7.38;;
55913;SDS011;58179;48.776;9.124;2023-01-01T08:39:00;12.57;;;6.70;;
55913;SDS011;58179;48.776;9.124;2023-01-01T08:41:26;13.32;;;6.82;;
55913;SDS011;58179;48.776;9.124;2023-01-01T08:43:52;11.43;;;6.63;;
55913;SDS011;58179;48.776;9.124;2023-01-01T08:46:18;13.90;;;7.03;;
55913;SDS011;58179;48.776;9.124;2023-01-01T08:48:44;16.58;;;7.63;;
55913;SDS011;58179;48.776;9.124;2023-01-01T08:51:10;13.53;;;6.10;;
55913;SDS011;58179;48.776;9.124;2023-01-01T08:53:37;12.80;;;6.65;;
55913;SDS011;58179;48.776;9.124;2023-01-01T08:56:04;14.80;;;7.05;;
55913;SDS011;58179;48.776;9.124;2023-01-01T08:58:32;10.80;;;6.20;;
55913;SDS011;58179;48.776;9.124;2023-01-01T09:01:01;12.93;;;6.80;;
55913;SDS011;58179;48.776;9.124;2023-01-01T09:03:28;12.55;;;6.85;;
55913;SDS011;58179;48.776;9.124;2023-01-01T09:05:54;13.55;;;6.60;;
55913;SDS011;58179;48.776;9.124;2023-01-01T09:08:20;11.95;;;6.15;;
55913;SDS011;58179;48.776;9.124;2023-01-01T09:10:48;12.02;;;6.05;;
55913;SDS011;58179;48.776;9.124;2023-01-01T09:13:15;11.38;;;6.35;;
55913;SDS011;58179;48.776;9.124;2023-01-01T09:15:43;10.00;;;5.70;;
55913;SDS011;58179;48.776;9.124;2023-01-01T09:18:09;12.10;;;5.77;;
55913;SDS011;58179;48.776;9.124;2023-01-01T09:20:35;11.32;;;5.70;;
55913;SDS011;58179;48.776;9.124;2023-01-01T09:23:02;11.68;;;4.97;;
55913;SDS011;58179;48.776;9.124;2023-01-01T09:25:29;8.63;;;5.50;;
55913;SDS011;58179;48.776;9.124;2023-01-01T09:27:57;8.32;;;5.13;;
55913;SDS011;58179;48.776;9.124;2023-01-01T09:30:23;9.17;;;5.20;;
55913;SDS011;58179;48.776;9.124;2023-01-01T09:32:50;9.73;;;5.28;;
55913;SDS011;58179;48.776;9.124;2023-01-01T09:35:16;10.47;;;5.20;;
55913;SDS011;58179;48.776;9.124;2023-01-01T09:37:42;9.20;;;5.38;;
55913;SDS011;58179;48.776;9.124;2023-01-01T09:40:08;12.70;;;6.05;;
55913;SDS011;58179;48.776;9.124;2023-01-01T09:42:51;9.33;;;5.83;;
55913;SDS011;58179;48.776;9.124;2023-01-01T09:45:30;9.88;;;5.65;;
55913;SDS011;58179;48.776;9.124;2023-01-01T09:48:04;11.60;;;5.78;;
55913;SDS011;58179;48.776;9.124;2023-01-01T09:50:37;9.20;;;4.95;;
55913;SDS011;58179;48.776;9.124;2023-01-01T09:53:08;9.80;;;4.80;;
55913;SDS011;58179;48.776;9.124;2023-01-01T09:55:40;8.38;;;4.70;;
55913;SDS011;58179;48.776;9.124;2023-01-01T09:58:13;7.22;;;4.60;;
55913;SDS011;58179;48.776;9.124;2023-01-01T10:00:41;8.88;;;4.80;;
55913;SDS011;58179;48.776;9.124;2023-01-01T10:03:16;9.63;;;4.70;;
55913;SDS011;58179;48.776;9.124;2023-01-01T10:05:55;9.35;;;4.47;;
55913;SDS011;58179;48.776;9.124;2023-01-01T10:08:35;9.85;;;4.85;;
55913;SDS011;58179;48.776;9.124;2023-01-01T10:11:19;11.55;;;4.50;;
55913;SDS011;58179;48.776;9.124;2023-01-01T10:13:57;7.70;;;3.70;;
55913;SDS011;58179;48.776;9.124;2023-01-01T10:16:27;8.05;;;3.92;;
55913;SDS011;58179;48.776;9.124;2023-01-01T10:19:00;6.80;;;3.38;;
55913;SDS011;58179;48.776;9.124;2023-01-01T10:21:31;10.65;;;3.60;;
55913;SDS011;58179;48.776;9.124;2023-01-01T10:24:03;6.00;;;3.42;;
55913;SDS011;58179;48.776;9.124;2023-01-01T10:26:50;7.72;;;4.07;;
55913;SDS011;58179;48.776;9.124;2023-01-01T10:29:27;5.93;;;3.40;;
55913;SDS011;58179;48.776;9.124;2023-01-01T10:32:04;9.55;;;3.58;;
55913;SDS011;58179;48.776;9.124;2023-01-01T10:34:42;7.72;;;3.22;;
55913;SDS011;58179;48.776;9.124;2023-01-01T10:37:08;7.70;;;3.05;;
55913;SDS011;58179;48.776;9.124;2023-01-01T10:39:36;8.48;;;3.30;;
55913;SDS011;58179;48.776;9.124;2023-01-01T10:42:03;7.72;;;3.25;;
55913;SDS011;58179;48.776;9.124;2023-01-01T10:44:31;7.60;;;3.28;;
55913;SDS011;58179;48.776;9.124;2023-01-01T10:49:52;6.38;;;3.25;;
55913;SDS011;58179;48.776;9.124;2023-01-01T10:52:22;7.38;;;2.70;;
55913;SDS011;58179;48.776;9.124;2023-01-01T10:54:53;7.57;;;3.05;;
55913;SDS011;58179;48.776;9.124;2023-01-01T10:57:20;10.25;;;3.50;;
55913;SDS011;58179;48.776;9.124;2023-01-01T11:00:09;6.13;;;2.80;;
55913;SDS011;58179;48.776;9.124;2023-01-01T11:02:46;7.30;;;2.90;;
55913;SDS011;58179;48.776;9.124;2023-01-01T11:05:14;7.50;;;3.20;;
55913;SDS011;58179;48.776;9.124;2023-01-01T11:07:43;6.63;;;2.67;;
55913;SDS011;58179;48.776;9.124;2023-01-01T11:10:14;4.65;;;2.70;;
55913;SDS011;58179;48.776;9.124;2023-01-01T11:12:43;6.60;;;2.53;;
55913;SDS011;58179;48.776;9.124;2023-01-01T11:15:20;7.20;;;2.47;;
55913;SDS011;58179;48.776;9.124;2023-01-01T11:18:01;5.25;;;2.92;;
55913;SDS011;58179;48.776;9.124;2023-01-01T11:20:29;6.18;;;2.47;;
55913;SDS011;58179;48.776;9.124;2023-01-01T11:22:56;4.80;;;2.78;;
55913;SDS011;58179;48.776;9.124;2023-01-01T11:25:23;8.40;;;2.60;;
55913;SDS011;58179;48.776;9.124;2023-01-01T11:27:51;8.38;;;2.72;;
55913;SDS011;58179;48.776;9.124;2023-01-01T11:30:45;7.70;;;2.80;;
55913;SDS011;58179;48.776;9.124;2023-01-01T11:33:25;9.60;;;2.80;;
55913;SDS011;58179;48.776;9.124;2023-01-01T11:35:54;5.57;;;2.47;;
55913;SDS011;58179;48.776;9.124;2023-01-01T11:38:21;16.77;;;3.35;;
55913;SDS011;58179;48.776;9.124;2023-01-01T11:40:50;4.63;;;2.28;;
55913;SDS011;58179;48.776;9.124;2023-01-01T11:43:20;8.38;;;3.00;;
55913;SDS011;58179;48.776;9.124;2023-01-01T11:45:51;9.68;;;2.60;;
55913;SDS011;58179;48.776;9.124;2023-01-01T11:48:19;7.55;;;2.60;;
55913;SDS011;58179;48.776;9.124;2023-01-01T11:50:51;5.30;;;2.42;;
55913;SDS011;58179;48.776;9.124;2023-01-01T11:53:25;7.90;;;2.92;;
55913;SDS011;58179;48.776;9.124;2023-01-01T11:55:57;7.45;;;2.80;;
55913;SDS011;58179;48.776;9.124;2023-01-01T11:58:33;10.85;;;3.10;;
55913;SDS011;58179;48.776;9.124;2023-01-01T12:01:11;11.38;;;2.97;;
55913;SDS011;58179;48.776;9.124;2023-01-01T12:03:50;7.78;;;2.97;;
55913;SDS011;58179;48.776;9.124;2023-01-01T12:06:22;8.05;;;2.80;;
55913;SDS011;58179;48.776;9.124;2023-01-01T12:08:55;6.63;;;2.77;;
55913;SDS011;58179;48.776;9.124;2023-01-01T12:11:32;9.98;;;3.00;;
55913;SDS011;58179;48.776;9.124;2023-01-01T12:14:04;7.70;;;2.97;;
55913;SDS011;58179;48.776;9.124;2023-01-01T12:16:44;9.97;;;3.20;;
55913;SDS011;58179;48.776;9.124;2023-01-01T12:19:19;6.65;;;2.97;;
55913;SDS011;58179;48.776;9.124;2023-01-01T12:21:49;9.00;;;2.58;;
55913;SDS011;58179;48.776;9.124;2023-01-01T12:24:22;7.03;;;3.00;;
55913;SDS011;58179;48.776;9.124;2023-01-01T12:26:56;12.48;;;2.90;;
55913;SDS011;58179;48.776;9.124;2023-01-01T12:29:43;6.38;;;2.13;;
55913;SDS011;58179;48.776;9.124;2023-01-01T12:32:31;6.88;;;2.83;;
55913;SDS011;58179;48.776;9.124;2023-01-01T12:35:13;5.82;;;2.42;;
55913;SDS011;58179;48.776;9.124;2023-01-01T12:37:54;3.65;;;2.17;;
55913;SDS011;58179;48.776;9.124;2023-01-01T12:40:36;6.78;;;2.60;;
55913;SDS011;58179;48.776;9.124;2023-01-01T12:43:07;8.23;;;2.88;;
55913;SDS011;58179;48.776;9.124;2023-01-01T12:45:40;7.43;;;2.90;;
55913;SDS011;58179;48.776;9.124;2023-01-01T12:48:52;7.35;;;2.80;;
55913;SDS011;58179;48.776;9.124;2023-01-01T12:51:42;7.43;;;2.60;;
55913;SDS011;58179;48.776;9.124;2023-01-01T12:57:42;8.60;;;3.63;;
55913;SDS011;58179;48.776;9.124;2023-01-01T13:00:15;9.88;;;3.03;;
55913;SDS011;58179;48.776;9.124;2023-01-01T13:02:45;8.48;;;3.13;;
55913;SDS011;58179;48.776;9.124;2023-01-01T13:05:16;7.32;;;2.88;;
55913;SDS011;58179;48.776;9.124;2023-01-01T13:07:49;10.38;;;3.20;;
55913;SDS011;58179;48.776;9.124;2023-01-01T13:10:22;7.13;;;2.78;;
55913;SDS011;58179;48.776;9.124;2023-01-01T13:12:51;7.22;;;2.90;;
55913;SDS011;58179;48.776;9.124;2023-01-01T13:18:18;6.05;;;2.58;;
55913;SDS011;58179;48.776;9.124;2023-01-01T13:21:01;5.60;;;2.40;;
55913;SDS011;58179;48.776;9.124;2023-01-01T13:23:44;7.97;;;2.47;;
55913;SDS011;58179;48.776;9.124;2023-01-01T13:26:34;6.90;;;2.70;;
55913;SDS011;58179;48.776;9.124;2023-01-01T13:32:04;5.68;;;2.80;;
55913;SDS011;58179;48.776;9.124;2023-01-01T13:34:35;5.38;;;2.72;;
55913;SDS011;58179;48.776;9.124;2023-01-01T13:37:30;7.32;;;2.53;;
55913;SDS011;58179;48.776;9.124;2023-01-01T13:40:31;7.40;;;2.55;;
55913;SDS011;58179;48.776;9.124;2023-01-01T13:45:58;5.32;;;2.50;;
55913;SDS011;58179;48.776;9.124;2023-01-01T13:48:37;7.10;;;2.72;;
55913;SDS011;58179;48.776;9.124;2023-01-01T13:51:44;9.25;;;2.95;;
55913;SDS011;58179;48.776;9.124;2023-01-01T13:54:43;5.55;;;3.10;;
55913;SDS011;58179;48.776;9.124;2023-01-01T13:58:16;12.45;;;3.00;;
55913;SDS011;58179;48.776;9.124;2023-01-01T14:01:11;6.38;;;2.97;;
55913;SDS011;58179;48.776;9.124;2023-01-01T14:03:53;12.30;;;3.05;;
55913;SDS011;58179;48.776;9.124;2023-01-01T14:06:25;8.95;;;3.33;;
55913;SDS011;58179;48.776;9.124;2023-01-01T14:09:01;6.55;;;2.75;;
55913;SDS011;58179;48.776;9.124;2023-01-01T14:11:32;10.68;;;3.20;;
55913;SDS011;58179;48.776;9.124;2023-01-01T14:13:58;7.72;;;3.25;;
55913;SDS011;58179;48.776;9.124;2023-01-01T14:16:24;4.50;;;2.60;;
55913;SDS011;58179;48.776;9.124;2023-01-01T14:18:52;7.90;;;3.10;;
55913;SDS011;58179;48.776;9.124;2023-01-01T14:21:22;4.90;;;2.63;;
55913;SDS011;58179;48.776;9.124;2023-01-01T14:23:53;6.30;;;2.95;;
55913;SDS011;58179;48.776;9.124;2023-01-01T14:26:22;11.63;;;3.13;;
55913;SDS011;58179;48.776;9.124;2023-01-01T14:28:53;7.25;;;2.78;;
55913;SDS011;58179;48.776;9.124;2023-01-01T14:31:20;10.45;;;3.42;;
55913;SDS011;58179;48.776;9.124;2023-01-01T14:33:51;10.80;;;3.63;;
55913;SDS011;58179;48.776;9.124;2023-01-01T14:36:19;12.00;;;3.78;;
55913;SDS011;58179;48.776;9.124;2023-01-01T14:38:48;10.00;;;3.00;;
55913;SDS011;58179;48.776;9.124;2023-01-01T14:41:17;5.95;;;3.03;;
55913;SDS011;58179;48.776;9.124;2023-01-01T14:43:56;5.22;;;2.85;;
55913;SDS011;58179;48.776;9.124;2023-01-01T14:46:28;5.13;;;2.72;;
55913;SDS011;58179;48.776;9.124;2023-01-01T14:48:55;6.60;;;2.78;;
55913;SDS011;58179;48.776;9.124;2023-01-01T14:51:26;9.63;;;2.97;;
55913;SDS011;58179;48.776;9.124;2023-01-01T14:53:56;5.97;;;3.00;;
55913;SDS011;58179;48.776;9.124;2023-01-01T14:56:26;10.17;;;3.27;;
55913;SDS011;58179;48.776;9.124;2023-01-01T14:59:00;10.73;;;3.25;;
55913;SDS011;58179;48.776;9.124;2023-01-01T15:01:32;8.23;;;3.42;;
55913;SDS011;58179;48.776;9.124;2023-01-01T15:03:58;6.43;;;3.10;;
55913;SDS011;58179;48.776;9.124;2023-01-01T15:06:27;9.10;;;3.88;;
55913;SDS011;58179;48.776;9.124;2023-01-01T15:08:54;5.38;;;3.15;;
55913;SDS011;58179;48.776;9.124;2023-01-01T15:11:21;11.00;;;3.87;;